Wilbar, NC

2:43 PM EDT on April 28, 2017 (GMT -0400)
MRVZN7 | | Change Station

Elev 2381 ft 36.23 °N, 81.30 °W | Updated 34 minutes ago

Clear
Clear
65.0 °F
Feels Like 65.0 °F
N
3.0
Wind Variable Wind from SSW
Gusts 4.0 mph

Today
High -- | Low -- °F
--% Chance of Precip.
Yesterday
High -- | Low -- °F
Precip. -- in
Pressure 30.12 in
Visibility 10.0 miles
Clouds Clear
Dew Point 63.0 °F
Humidity 93%
Rainfall in
Snow Depth Not available.
6:35 AM 8:10 PM
Waxing Crescent, 8% visible
METAR KUKF 281830Z AUTO 22009G17KT 10SM CLR 26/18 A3012 RMK AO2
Pressure 30.12 in
Visibility 10.0 miles
Clouds Clear
Dew Point 63.0 °F
Humidity 93%
Rainfall in
Snow Depth Not available.
6:35 AM 8:10 PM
Waxing Crescent, 8% visible
METAR KUKF 281830Z AUTO 22009G17KT 10SM CLR 26/18 A3012 RMK AO2

Get Severe Weather Alerts

Thanks for signing up!

Be on the lookout for a verification email in your inbox.

You'll start receiving the daily forecast at 8 AM.

×

10-Day Weather Forecast

Almanac

Astronomy

Apr. 28, 2017 Rise Set
Actual Time
Civil Twilight
Nautical Twilight
Astronomical Twilight
Moon
Length of Visible Light
Length of Day
Tomorrow will be .
, % of the Moon is Illuminated

Today's Extremes

State Highs State Lows

Community

WunderPhotos

WunderBlog® & News

Nearby

Air Quality

  Air Quality AQ Index Pollutant
Not available.

Snow Depth

Station Depth Elevation

Earthquake Activity

City Distance Mag. Time & Date
Minimum magnitude displayed is 2.5.

Coastal Water Temperatures

Place Temperature

Stations

Nearby Weather Stations

Station Location Temp. Windchill Dew Point Humidity Wind Precip. Elev Updated Type
                   

Watches & Warnings

There are currently no watches in effect.